createdAt,value
2018-06-12T00:02:18.556Z,19.30
2018-06-12T00:04:53.366Z,19.30
2018-06-12T00:07:28.046Z,19.30
2018-06-12T00:10:02.818Z,19.20
2018-06-12T00:12:37.570Z,19.20
2018-06-12T00:15:12.425Z,19.20
2018-06-12T00:17:46.961Z,19.20
2018-06-12T00:20:21.682Z,19.10
2018-06-12T00:22:56.440Z,19.20
2018-06-12T00:25:31.142Z,19.10
2018-06-12T00:28:05.784Z,19.20
2018-06-12T00:30:40.325Z,19.20
2018-06-12T00:33:15.298Z,19.10
2018-06-12T00:35:49.886Z,19.10
2018-06-12T00:38:24.875Z,19.10
2018-06-12T00:40:59.206Z,19.20
2018-06-12T00:43:33.981Z,19.20
2018-06-12T00:46:09.439Z,19.30
2018-06-12T00:48:43.950Z,19.30
2018-06-12T00:51:18.772Z,19.30
2018-06-12T00:53:53.598Z,19.40
2018-06-12T00:56:45.628Z,19.40
2018-06-12T00:59:20.490Z,19.50
2018-06-12T01:01:54.957Z,19.50
2018-06-12T01:04:29.573Z,19.50
2018-06-12T01:07:04.251Z,19.50
2018-06-12T01:09:38.804Z,19.50
2018-06-12T01:12:13.357Z,19.50
2018-06-12T01:14:48.385Z,19.50
2018-06-12T01:17:22.778Z,19.40
2018-06-12T01:19:57.758Z,19.40
2018-06-12T01:22:32.492Z,19.40
2018-06-12T01:25:07.321Z,19.30
2018-06-12T01:27:42.024Z,19.30
2018-06-12T01:30:16.620Z,19.30
2018-06-12T01:32:51.372Z,19.20
2018-06-12T01:35:26.212Z,19.20
2018-06-12T01:38:00.826Z,19.10
2018-06-12T01:40:35.969Z,19.10
2018-06-12T01:43:10.148Z,19.00
2018-06-12T01:45:44.943Z,19.00
2018-06-12T01:48:19.511Z,19.00
2018-06-12T01:50:54.157Z,18.90
2018-06-12T01:53:28.808Z,18.90
2018-06-12T01:56:03.674Z,18.90
2018-06-12T01:58:38.353Z,18.90
2018-06-12T02:01:13.162Z,18.80
2018-06-12T02:03:47.691Z,18.80
2018-06-12T02:06:22.565Z,18.80
2018-06-12T02:15:06.171Z,18.70
2018-06-12T02:17:41.009Z,18.60
2018-06-12T02:20:15.196Z,18.60
2018-06-12T02:22:49.949Z,18.60
2018-06-12T02:25:24.557Z,18.60
2018-06-12T02:27:59.214Z,18.60
2018-06-12T02:30:34.226Z,18.60
2018-06-12T02:33:08.931Z,18.60
2018-06-12T02:35:43.684Z,18.70
2018-06-12T02:38:18.317Z,18.60
2018-06-12T02:40:53.194Z,18.60
2018-06-12T02:43:27.978Z,18.70
2018-06-12T02:46:02.732Z,18.60
2018-06-12T02:48:37.339Z,18.60
2018-06-12T02:51:12.154Z,18.60
2018-06-12T02:53:47.054Z,18.70
2018-06-12T02:56:21.819Z,18.60
2018-06-12T02:58:56.336Z,18.60
2018-06-12T03:01:30.929Z,18.60
2018-06-12T03:04:05.865Z,18.60
2018-06-12T03:06:40.425Z,18.60
2018-06-12T03:09:14.889Z,18.60
2018-06-12T03:11:49.586Z,18.60
2018-06-12T03:14:24.570Z,18.60
2018-06-12T03:16:59.014Z,18.60
2018-06-12T03:19:33.854Z,18.60
2018-06-12T03:22:08.501Z,18.60
2018-06-12T03:24:42.988Z,18.60
2018-06-12T03:27:17.804Z,18.70
2018-06-12T03:29:53.483Z,18.70
2018-06-12T03:32:28.247Z,18.80
2018-06-12T03:35:04.050Z,18.80
2018-06-12T03:37:38.536Z,18.80
2018-06-12T03:40:13.023Z,18.80
2018-06-12T03:42:47.731Z,18.90
2018-06-12T03:45:22.538Z,18.90
2018-06-12T03:47:57.089Z,18.90
2018-06-12T03:50:31.880Z,19.00
2018-06-12T03:53:06.626Z,19.00
2018-06-12T03:55:41.189Z,19.00
2018-06-12T03:58:16.106Z,19.10
2018-06-12T04:00:50.696Z,19.10
2018-06-12T04:06:00.260Z,19.10
2018-06-12T04:08:35.382Z,19.10
2018-06-12T04:11:09.610Z,19.10
2018-06-12T04:13:44.295Z,19.10
2018-06-12T04:16:18.780Z,19.20
2018-06-12T04:18:53.542Z,19.20
2018-06-12T04:21:28.144Z,19.20
2018-06-12T04:24:02.823Z,19.20
2018-06-12T04:26:37.591Z,19.20
2018-06-12T04:29:12.735Z,19.20
2018-06-12T04:31:48.057Z,19.20
2018-06-12T04:34:22.540Z,19.20
2018-06-12T04:36:57.051Z,19.20
2018-06-12T04:39:31.787Z,19.20
2018-06-12T04:42:07.053Z,19.20
2018-06-12T04:44:41.225Z,19.30
2018-06-12T04:47:16.010Z,19.30
2018-06-12T04:49:50.579Z,19.30
2018-06-12T04:52:25.197Z,19.30
2018-06-12T04:54:59.872Z,19.40
2018-06-12T04:57:34.555Z,19.40
2018-06-12T05:00:09.295Z,19.50
2018-06-12T05:02:44.057Z,19.50
2018-06-12T05:05:18.994Z,19.50
2018-06-12T05:07:53.815Z,19.60
2018-06-12T05:10:28.105Z,19.60
2018-06-12T05:13:02.752Z,19.60
2018-06-12T05:15:37.387Z,19.60
2018-06-12T05:18:12.118Z,19.60
2018-06-12T05:20:46.889Z,19.60
2018-06-12T05:23:21.852Z,19.60
2018-06-12T05:25:56.361Z,19.60
2018-06-12T05:28:31.318Z,19.70
2018-06-12T05:31:05.875Z,19.70
2018-06-12T05:33:40.332Z,19.80
2018-06-12T05:36:15.074Z,19.80
2018-06-12T05:38:49.723Z,19.90
2018-06-12T05:41:24.442Z,19.90
2018-06-12T05:43:58.997Z,19.90
2018-06-12T05:46:33.741Z,19.90
2018-06-12T05:49:08.450Z,19.90
2018-06-12T05:51:43.478Z,19.90
2018-06-12T05:54:18.179Z,19.90
2018-06-12T05:56:52.563Z,19.90
2018-06-12T05:59:27.102Z,19.80
2018-06-12T06:02:02.082Z,19.80
2018-06-12T06:04:36.435Z,19.80
2018-06-12T06:07:11.023Z,19.90
2018-06-12T06:09:45.762Z,19.90
2018-06-12T06:12:20.631Z,19.90
2018-06-12T06:14:55.226Z,19.90
2018-06-12T06:17:30.331Z,19.90
2018-06-12T06:20:06.110Z,19.90
2018-06-12T06:22:40.723Z,20.00
2018-06-12T06:25:15.306Z,20.00
2018-06-12T06:27:50.184Z,20.00
2018-06-12T06:30:24.876Z,20.00
2018-06-12T06:32:59.600Z,20.00
2018-06-12T06:35:34.452Z,20.00
2018-06-12T06:38:08.837Z,20.00
2018-06-12T06:40:43.596Z,20.10
2018-06-12T06:43:18.140Z,20.10
2018-06-12T06:45:52.766Z,20.20
2018-06-12T06:48:27.547Z,20.20
2018-06-12T06:51:02.255Z,20.30
2018-06-12T06:53:36.967Z,20.30
2018-06-12T06:56:12.118Z,20.30
2018-06-12T06:58:46.749Z,20.40
2018-06-12T07:01:21.364Z,20.50
2018-06-12T07:03:56.702Z,20.60
2018-06-12T07:06:31.788Z,20.80
2018-06-12T07:09:08.110Z,21.00
2018-06-12T07:11:43.201Z,21.30
2018-06-12T07:14:17.942Z,21.50
2018-06-12T07:16:52.592Z,21.60
2018-06-12T07:19:27.411Z,21.60
2018-06-12T07:22:01.863Z,21.80
2018-06-12T07:24:36.623Z,21.80
2018-06-12T07:27:11.253Z,21.90
2018-06-12T07:29:45.881Z,22.10
2018-06-12T07:32:20.500Z,22.10
2018-06-12T07:34:55.010Z,22.20
2018-06-12T07:37:29.761Z,22.20
2018-06-12T07:40:04.497Z,22.30
2018-06-12T07:42:39.261Z,22.30
2018-06-12T07:45:13.929Z,22.40
2018-06-12T07:47:48.462Z,22.40
2018-06-12T07:50:23.117Z,22.50
2018-06-12T07:52:57.723Z,22.50
2018-06-12T07:55:32.429Z,22.50
2018-06-12T07:58:06.984Z,22.60
2018-06-12T08:00:41.622Z,22.70
2018-06-12T08:03:16.112Z,22.80
2018-06-12T08:05:50.791Z,23.10
2018-06-12T08:08:25.369Z,23.70
2018-06-12T08:11:00.025Z,24.20
2018-06-12T08:13:34.494Z,24.30
2018-06-12T08:16:09.184Z,24.40
2018-06-12T08:18:43.786Z,24.40
2018-06-12T08:21:18.536Z,24.40
2018-06-12T08:23:53.143Z,24.40
2018-06-12T08:26:27.841Z,24.40
2018-06-12T08:29:02.682Z,24.30
2018-06-12T08:31:37.410Z,24.20
2018-06-12T08:34:12.042Z,24.10
2018-06-12T08:36:47.049Z,24.10
2018-06-12T08:39:21.400Z,24.10
2018-06-12T08:41:56.131Z,24.20
2018-06-12T08:44:30.753Z,24.30
2018-06-12T08:47:05.807Z,24.30
2018-06-12T08:49:40.298Z,24.20
2018-06-12T08:52:15.086Z,24.10
2018-06-12T08:54:49.803Z,24.10
2018-06-12T08:57:24.727Z,24.00
2018-06-12T08:59:59.834Z,23.90
2018-06-12T09:02:34.144Z,23.70
2018-06-12T09:05:08.662Z,23.60
2018-06-12T09:07:43.482Z,23.50
2018-06-12T09:10:18.360Z,23.40
2018-06-12T09:12:53.190Z,23.30
2018-06-12T09:15:27.531Z,23.30
2018-06-12T09:18:02.271Z,23.30
2018-06-12T09:20:36.769Z,23.30
2018-06-12T09:23:11.374Z,23.20
2018-06-12T09:25:46.320Z,23.10
2018-06-12T09:28:20.811Z,23.20
2018-06-12T09:30:55.272Z,23.20
2018-06-12T09:33:30.338Z,23.30
2018-06-12T09:36:10.372Z,23.40
2018-06-12T09:38:45.699Z,23.50
2018-06-12T09:41:19.878Z,23.70
2018-06-12T09:43:54.805Z,23.70
2018-06-12T09:46:29.068Z,23.80
2018-06-12T09:49:03.820Z,24.20
2018-06-12T09:51:38.518Z,24.60
2018-06-12T09:54:13.125Z,25.00
2018-06-12T09:56:47.775Z,25.20
2018-06-12T09:59:22.498Z,25.20
2018-06-12T10:01:57.131Z,25.30
2018-06-12T10:04:31.784Z,25.50
2018-06-12T10:07:06.468Z,25.40
2018-06-12T10:09:41.136Z,25.40
2018-06-12T10:12:15.771Z,25.30
2018-06-12T10:14:50.405Z,25.20
2018-06-12T10:17:25.050Z,25.10
2018-06-12T10:19:59.791Z,25.00
2018-06-12T10:22:34.601Z,24.90
2018-06-12T10:25:09.100Z,24.90
2018-06-12T10:27:43.773Z,24.80
2018-06-12T10:30:18.410Z,24.70
2018-06-12T10:32:52.945Z,24.70
2018-06-12T10:35:27.711Z,24.50
2018-06-12T10:38:02.619Z,24.30
2018-06-12T10:40:36.903Z,24.20
2018-06-12T10:43:11.583Z,24.20
2018-06-12T10:45:46.328Z,24.10
2018-06-12T10:48:21.237Z,24.20
2018-06-12T10:50:55.619Z,24.10
2018-06-12T10:53:30.451Z,24.10
2018-06-12T10:56:05.281Z,24.00
2018-06-12T10:58:39.668Z,24.10
2018-06-12T11:06:23.835Z,23.90
2018-06-12T11:08:58.177Z,23.90
2018-06-12T11:11:32.990Z,23.90
2018-06-12T11:14:07.496Z,23.80
2018-06-12T11:16:42.690Z,23.80
2018-06-12T11:19:16.834Z,23.80
2018-06-12T11:21:51.736Z,23.80
2018-06-12T11:24:26.373Z,23.70
2018-06-12T11:27:00.991Z,23.70
2018-06-12T11:29:35.582Z,23.70
2018-06-12T11:32:10.515Z,23.70
2018-06-12T11:34:46.033Z,23.80
2018-06-12T11:37:20.970Z,23.90
2018-06-12T11:39:55.475Z,23.90
2018-06-12T11:42:30.551Z,24.10
2018-06-12T11:45:05.113Z,24.20
2018-06-12T11:47:39.737Z,24.50
2018-06-12T11:50:14.367Z,24.70
2018-06-12T11:52:48.979Z,24.80
2018-06-12T11:55:23.477Z,24.90
2018-06-12T11:57:58.238Z,25.00
2018-06-12T12:00:33.133Z,25.00
2018-06-12T12:03:07.400Z,25.00
2018-06-12T12:05:42.191Z,25.00
2018-06-12T12:08:16.899Z,25.00
2018-06-12T12:10:51.561Z,24.90
2018-06-12T12:13:26.235Z,24.90
2018-06-12T12:16:01.361Z,24.90
2018-06-12T12:18:36.040Z,24.90
2018-06-12T12:21:10.568Z,24.90
2018-06-12T12:23:45.568Z,25.00
2018-06-12T12:26:20.125Z,25.00
2018-06-12T12:28:54.995Z,25.10
2018-06-12T12:31:30.037Z,25.10
2018-06-12T12:34:04.672Z,25.10
2018-06-12T12:36:39.427Z,25.10
2018-06-12T12:39:13.877Z,25.00
2018-06-12T12:41:48.589Z,25.00
2018-06-12T12:44:23.332Z,24.90
2018-06-12T12:46:58.301Z,24.80
2018-06-12T12:49:32.778Z,24.70
2018-06-12T12:52:07.284Z,24.70
2018-06-12T12:54:42.863Z,24.60
2018-06-12T12:57:17.568Z,24.60
2018-06-12T12:59:52.205Z,24.50
2018-06-12T13:02:26.629Z,24.50
2018-06-12T13:05:01.427Z,24.50
2018-06-12T13:07:36.122Z,24.50
2018-06-12T13:10:10.993Z,24.50
2018-06-12T13:12:45.728Z,24.50
2018-06-12T13:15:20.461Z,24.50
2018-06-12T13:17:56.514Z,24.60
2018-06-12T13:20:31.507Z,24.70
2018-06-12T13:23:06.527Z,24.80
2018-06-12T13:25:41.352Z,24.90
2018-06-12T13:28:15.663Z,24.90
2018-06-12T13:30:50.480Z,24.90
2018-06-12T13:33:25.463Z,24.90
2018-06-12T13:35:59.834Z,24.90
2018-06-12T13:38:34.541Z,24.90
2018-06-12T13:41:09.300Z,24.90
2018-06-12T13:43:44.052Z,24.90
2018-06-12T13:46:18.643Z,24.90
2018-06-12T13:48:53.614Z,24.80
2018-06-12T13:51:28.151Z,24.80
2018-06-12T13:54:02.615Z,24.80
2018-06-12T13:56:37.424Z,24.90
2018-06-12T13:59:11.829Z,24.90
2018-06-12T14:01:46.506Z,24.80
2018-06-12T14:04:21.331Z,24.90
2018-06-12T14:06:55.727Z,24.90
2018-06-12T14:09:30.269Z,24.80
2018-06-12T14:12:05.034Z,24.90
2018-06-12T14:14:39.872Z,24.90
2018-06-12T14:17:14.369Z,24.80
2018-06-12T14:19:48.933Z,24.70
2018-06-12T14:22:23.795Z,24.50
2018-06-12T14:24:58.398Z,24.50
2018-06-12T14:27:33.239Z,24.40
2018-06-12T14:30:09.019Z,24.30
2018-06-12T14:32:43.650Z,24.10
2018-06-12T14:35:18.409Z,24.00
2018-06-12T14:37:53.168Z,23.80
2018-06-12T14:40:27.672Z,23.70
2018-06-12T14:43:02.297Z,23.50
2018-06-12T14:45:37.002Z,23.40
2018-06-12T14:48:11.693Z,23.30
2018-06-12T14:50:46.112Z,23.10
2018-06-12T14:53:20.890Z,22.90
2018-06-12T14:55:55.626Z,22.60
2018-06-12T14:58:30.392Z,22.40
2018-06-12T15:01:05.381Z,22.00
2018-06-12T15:03:39.592Z,21.80
2018-06-12T15:06:14.365Z,21.50
2018-06-12T15:08:49.346Z,21.30
2018-06-12T15:11:24.068Z,21.00
2018-06-12T15:13:58.764Z,20.80
2018-06-12T15:16:33.881Z,20.70
2018-06-12T15:19:08.349Z,20.50
2018-06-12T15:21:43.089Z,20.30
2018-06-12T15:24:17.646Z,20.20
2018-06-12T15:26:53.192Z,20.00
2018-06-12T15:29:27.937Z,19.80
2018-06-12T15:32:02.577Z,19.70
2018-06-12T15:34:37.498Z,19.50
2018-06-12T15:37:12.054Z,19.40
2018-06-12T15:39:46.830Z,19.30
2018-06-12T15:42:21.539Z,19.30
2018-06-12T15:44:57.102Z,19.20
2018-06-12T15:47:31.819Z,19.20
2018-06-12T15:50:06.469Z,19.20
2018-06-12T15:55:15.954Z,19.10
2018-06-12T15:57:50.682Z,19.10
2018-06-12T16:00:25.222Z,19.10
2018-06-12T16:02:59.881Z,19.00
2018-06-12T16:05:34.829Z,18.90
2018-06-12T16:08:09.457Z,18.90
2018-06-12T16:10:44.077Z,18.80
2018-06-12T16:13:18.912Z,18.80
2018-06-12T16:15:53.903Z,18.70
2018-06-12T16:18:28.758Z,18.70
2018-06-12T16:21:03.030Z,18.60
2018-06-12T16:23:37.720Z,18.60
2018-06-12T16:26:12.485Z,18.60
2018-06-12T16:28:47.080Z,18.50
2018-06-12T16:31:22.061Z,18.40
2018-06-12T16:33:56.575Z,18.30
2018-06-12T16:36:31.227Z,18.30
2018-06-12T16:39:08.163Z,18.20
2018-06-12T16:41:42.805Z,18.20
2018-06-12T16:44:17.519Z,18.20
2018-06-12T16:46:53.048Z,18.10
2018-06-12T16:49:28.049Z,18.10
2018-06-12T16:52:03.200Z,18.00
2018-06-12T16:54:37.357Z,18.00
2018-06-12T16:57:12.204Z,17.90
2018-06-12T16:59:47.404Z,17.80
2018-06-12T17:02:22.519Z,17.80
2018-06-12T17:04:57.719Z,17.80
2018-06-12T17:07:33.217Z,17.80
2018-06-12T17:10:07.702Z,17.80
2018-06-12T17:12:42.443Z,17.80
2018-06-12T17:15:17.286Z,17.70
2018-06-12T17:17:52.689Z,17.70
2018-06-12T17:20:27.799Z,17.80
2018-06-12T17:23:02.355Z,17.70
2018-06-12T17:25:37.128Z,17.70
2018-06-12T17:28:11.883Z,17.70
2018-06-12T17:30:46.736Z,17.70
2018-06-12T17:33:21.401Z,17.70
2018-06-12T17:35:56.075Z,17.70
2018-06-12T17:38:31.091Z,17.70
2018-06-12T17:41:06.966Z,17.80
2018-06-12T17:43:43.297Z,17.70
2018-06-12T17:46:18.370Z,17.80
2018-06-12T17:48:54.262Z,17.80
2018-06-12T17:51:30.174Z,17.80
2018-06-12T17:54:06.435Z,17.80
2018-06-12T17:56:43.461Z,17.80
2018-06-12T17:59:21.014Z,17.80
2018-06-12T18:01:58.427Z,17.80
2018-06-12T18:04:35.324Z,17.80
2018-06-12T18:07:12.995Z,17.80
2018-06-12T18:09:51.778Z,17.80
2018-06-12T18:12:29.326Z,17.80
2018-06-12T18:15:06.394Z,17.80
2018-06-12T18:17:43.932Z,17.90
2018-06-12T18:20:22.257Z,17.90
2018-06-12T18:23:00.215Z,17.90
2018-06-12T18:25:37.920Z,17.90
2018-06-12T18:28:16.726Z,17.90
2018-06-12T18:30:54.071Z,17.90
2018-06-12T18:33:31.915Z,17.90
2018-06-12T18:36:09.304Z,17.80
2018-06-12T18:38:47.062Z,17.90
2018-06-12T18:41:24.848Z,17.90
2018-06-12T18:44:02.641Z,17.90
2018-06-12T18:46:41.058Z,17.90
2018-06-12T18:49:20.176Z,17.90
2018-06-12T18:51:59.851Z,17.90
2018-06-12T18:54:38.347Z,17.80
2018-06-12T18:57:16.475Z,17.80
2018-06-12T18:59:54.215Z,17.70
2018-06-12T19:02:32.191Z,17.70
2018-06-12T19:05:09.590Z,17.70
2018-06-12T19:07:47.552Z,17.70
2018-06-12T19:10:25.933Z,17.70
2018-06-12T19:13:04.014Z,17.70
2018-06-12T19:15:41.675Z,17.70
2018-06-12T19:18:19.291Z,17.70
2018-06-12T19:20:56.857Z,17.60
2018-06-12T19:23:35.442Z,17.60
2018-06-12T19:26:13.217Z,17.60
2018-06-12T19:28:51.899Z,17.60
2018-06-12T19:31:29.488Z,17.50
2018-06-12T19:34:08.495Z,17.50
2018-06-12T19:36:48.371Z,17.50
2018-06-12T19:39:25.962Z,17.50
2018-06-12T19:42:04.628Z,17.50
2018-06-12T19:44:42.499Z,17.50
2018-06-12T19:47:20.093Z,17.40
2018-06-12T19:49:58.073Z,17.40
2018-06-12T19:52:35.796Z,17.40
2018-06-12T19:55:13.829Z,17.40
2018-06-12T19:57:51.997Z,17.40
2018-06-12T20:00:29.225Z,17.40
2018-06-12T20:03:07.724Z,17.30
2018-06-12T20:05:48.321Z,17.30
2018-06-12T20:08:26.015Z,17.30
2018-06-12T20:11:04.305Z,17.30
2018-06-12T20:13:42.252Z,17.30
2018-06-12T20:16:21.026Z,17.30
2018-06-12T20:18:58.676Z,17.20
2018-06-12T20:21:36.851Z,17.20
2018-06-12T20:24:14.174Z,17.20
2018-06-12T20:26:52.029Z,17.20
2018-06-12T20:29:30.466Z,17.20
2018-06-12T20:32:08.412Z,17.20
2018-06-12T20:34:46.132Z,17.20
2018-06-12T20:37:24.275Z,17.20
2018-06-12T20:40:01.917Z,17.30
2018-06-12T20:42:39.633Z,17.30
2018-06-12T20:45:16.968Z,17.30
2018-06-12T20:50:29.458Z,17.20
2018-06-12T20:53:04.616Z,17.20
2018-06-12T20:55:39.108Z,17.20
2018-06-12T20:58:13.970Z,17.10
2018-06-12T21:00:48.668Z,17.20
2018-06-12T21:03:23.591Z,17.10
2018-06-12T21:05:58.400Z,17.10
2018-06-12T21:08:33.356Z,17.10
2018-06-12T21:11:08.108Z,17.10
2018-06-12T21:13:42.917Z,17.10
2018-06-12T21:16:17.511Z,17.10
2018-06-12T21:18:52.729Z,17.10
2018-06-12T21:21:26.972Z,17.10
2018-06-12T21:24:01.740Z,17.10
2018-06-12T21:26:36.683Z,17.10
2018-06-12T21:29:11.119Z,17.10
2018-06-12T21:31:46.053Z,17.10
2018-06-12T21:34:21.215Z,17.10
2018-06-12T21:36:55.698Z,17.10
2018-06-12T21:39:30.301Z,17.10
2018-06-12T21:42:04.895Z,17.10
2018-06-12T21:44:39.609Z,17.10
2018-06-12T21:47:14.210Z,17.10
2018-06-12T21:49:48.992Z,17.10
2018-06-12T21:52:23.654Z,17.10
2018-06-12T21:54:58.402Z,17.10
2018-06-12T21:57:32.970Z,17.10
2018-06-12T22:00:08.203Z,17.10
2018-06-12T22:02:42.545Z,17.10
2018-06-12T22:05:17.259Z,17.10
2018-06-12T22:07:52.126Z,17.10
2018-06-12T22:10:27.039Z,17.20
2018-06-12T22:13:01.380Z,17.20
2018-06-12T22:15:36.159Z,17.20
2018-06-12T22:18:10.820Z,17.20
2018-06-12T22:20:45.830Z,17.20
2018-06-12T22:23:20.225Z,17.20
2018-06-12T22:25:54.911Z,17.20
2018-06-12T22:28:29.779Z,17.20
2018-06-12T22:31:04.675Z,17.20
2018-06-12T22:33:39.385Z,17.20
2018-06-12T22:36:14.055Z,17.20
2018-06-12T22:38:48.636Z,17.20
2018-06-12T22:41:23.302Z,17.20
2018-06-12T22:43:58.046Z,17.20
2018-06-12T22:46:32.671Z,17.20
2018-06-12T22:49:07.358Z,17.20
2018-06-12T22:51:42.453Z,17.20
2018-06-12T22:54:16.556Z,17.20
2018-06-12T22:56:52.599Z,17.20
2018-06-12T22:59:27.631Z,17.20
2018-06-12T23:02:02.503Z,17.20
2018-06-12T23:04:36.898Z,17.20
2018-06-12T23:07:11.963Z,17.30
2018-06-12T23:09:46.189Z,17.30
2018-06-12T23:12:20.925Z,17.30
2018-06-12T23:14:55.762Z,17.30
2018-06-12T23:17:30.439Z,17.20
2018-06-12T23:20:22.204Z,17.30
2018-06-12T23:22:56.929Z,17.30
2018-06-12T23:25:31.679Z,17.20
2018-06-12T23:28:06.553Z,17.20
2018-06-12T23:30:41.197Z,17.20
2018-06-12T23:33:15.846Z,17.20
2018-06-12T23:35:50.618Z,17.20
2018-06-12T23:38:25.253Z,17.20
2018-06-12T23:41:00.009Z,17.20
2018-06-12T23:43:34.958Z,17.20
2018-06-12T23:46:09.537Z,17.20
2018-06-12T23:48:44.474Z,17.20
2018-06-12T23:51:19.160Z,17.10
2018-06-12T23:53:54.259Z,17.10
2018-06-12T23:56:28.697Z,17.10
2018-06-12T23:59:04.059Z,17.10
